sensor_id;sensor_type;location;lat;lon;timestamp;pressure;altitude;pressure_sealevel;temperature;humidity
50242;BME280;36126;43.222;27.874;2022-09-09T00:01:08;101515.31;;;17.36;100.00
50242;BME280;36126;43.222;27.874;2022-09-09T00:03:40;101514.50;;;17.63;100.00
50242;BME280;36126;43.222;27.874;2022-09-09T00:06:14;101509.16;;;17.61;100.00
50242;BME280;36126;43.222;27.874;2022-09-09T00:11:09;101514.44;;;17.58;100.00
50242;BME280;36126;43.222;27.874;2022-09-09T00:13:39;101511.31;;;17.54;100.00
50242;BME280;36126;43.222;27.874;2022-09-09T00:16:19;101495.97;;;17.40;100.00
50242;BME280;36126;43.222;27.874;2022-09-09T00:21:11;101484.69;;;17.62;100.00
50242;BME280;36126;43.222;27.874;2022-09-09T00:23:48;101484.06;;;17.55;100.00
50242;BME280;36126;43.222;27.874;2022-09-09T00:26:25;101493.09;;;17.57;100.00
50242;BME280;36126;43.222;27.874;2022-09-09T00:31:32;101487.16;;;17.31;100.00
50242;BME280;36126;43.222;27.874;2022-09-09T00:33:58;101490.34;;;17.40;100.00
50242;BME280;36126;43.222;27.874;2022-09-09T00:36:26;101496.66;;;17.52;100.00
50242;BME280;36126;43.222;27.874;2022-09-09T00:38:58;101495.22;;;17.49;100.00
50242;BME280;36126;43.222;27.874;2022-09-09T00:44:06;101495.66;;;17.36;100.00
50242;BME280;36126;43.222;27.874;2022-09-09T00:51:54;101485.19;;;17.31;100.00
50242;BME280;36126;43.222;27.874;2022-09-09T00:59:40;101474.13;;;17.20;100.00
50242;BME280;36126;43.222;27.874;2022-09-09T01:02:28;101473.75;;;17.38;100.00
50242;BME280;36126;43.222;27.874;2022-09-09T01:04:57;101479.19;;;17.45;100.00
50242;BME280;36126;43.222;27.874;2022-09-09T01:07:24;101475.84;;;17.48;100.00
50242;BME280;36126;43.222;27.874;2022-09-09T01:12:23;101468.75;;;17.40;100.00
50242;BME280;36126;43.222;27.874;2022-09-09T01:14:51;101472.66;;;17.39;100.00
50242;BME280;36126;43.222;27.874;2022-09-09T01:17:19;101469.25;;;17.37;100.00
50242;BME280;36126;43.222;27.874;2022-09-09T01:19:54;101470.84;;;17.28;100.00
50242;BME280;36126;43.222;27.874;2022-09-09T01:22:32;101485.53;;;17.35;100.00
50242;BME280;36126;43.222;27.874;2022-09-09T01:27:27;101479.53;;;17.26;100.00
50242;BME280;36126;43.222;27.874;2022-09-09T01:29:53;101476.19;;;17.29;100.00
50242;BME280;36126;43.222;27.874;2022-09-09T01:32:42;101480.03;;;17.23;100.00
50242;BME280;36126;43.222;27.874;2022-09-09T01:35:11;101479.13;;;17.17;100.00
50242;BME280;36126;43.222;27.874;2022-09-09T01:37:38;101475.34;;;17.29;100.00
50242;BME280;36126;43.222;27.874;2022-09-09T01:40:04;101478.13;;;17.29;100.00
50242;BME280;36126;43.222;27.874;2022-09-09T01:42:30;101475.81;;;17.43;100.00
50242;BME280;36126;43.222;27.874;2022-09-09T01:44:55;101464.56;;;16.98;100.00
50242;BME280;36126;43.222;27.874;2022-09-09T01:47:20;101472.09;;;16.93;100.00
50242;BME280;36126;43.222;27.874;2022-09-09T01:49:46;101470.53;;;17.02;100.00
50242;BME280;36126;43.222;27.874;2022-09-09T01:52:11;101485.16;;;16.87;100.00
50242;BME280;36126;43.222;27.874;2022-09-09T01:54:36;101474.44;;;16.62;100.00
50242;BME280;36126;43.222;27.874;2022-09-09T01:59:38;101476.16;;;16.46;100.00
50242;BME280;36126;43.222;27.874;2022-09-09T02:02:11;101475.44;;;16.56;100.00
50242;BME280;36126;43.222;27.874;2022-09-09T02:04:45;101480.44;;;16.71;100.00
50242;BME280;36126;43.222;27.874;2022-09-09T02:07:26;101481.88;;;16.73;100.00
50242;BME280;36126;43.222;27.874;2022-09-09T02:09:59;101489.66;;;16.66;100.00
50242;BME280;36126;43.222;27.874;2022-09-09T02:12:26;101489.66;;;16.66;100.00
50242;BME280;36126;43.222;27.874;2022-09-09T02:14:55;101485.06;;;16.60;100.00
50242;BME280;36126;43.222;27.874;2022-09-09T02:17:31;101479.22;;;16.61;100.00
50242;BME280;36126;43.222;27.874;2022-09-09T02:20:06;101485.41;;;16.63;100.00
50242;BME280;36126;43.222;27.874;2022-09-09T02:22:33;101489.56;;;16.61;100.00
50242;BME280;36126;43.222;27.874;2022-09-09T02:25:00;101486.44;;;16.57;100.00
50242;BME280;36126;43.222;27.874;2022-09-09T02:27:27;101490.34;;;16.56;100.00
50242;BME280;36126;43.222;27.874;2022-09-09T02:29:53;101479.69;;;16.58;100.00
50242;BME280;36126;43.222;27.874;2022-09-09T02:32:22;101490.25;;;16.51;100.00
50242;BME280;36126;43.222;27.874;2022-09-09T02:34:49;101485.56;;;16.57;100.00
50242;BME280;36126;43.222;27.874;2022-09-09T02:37:16;101483.03;;;16.55;100.00
50242;BME280;36126;43.222;27.874;2022-09-09T02:39:42;101484.66;;;16.51;100.00
50242;BME280;36126;43.222;27.874;2022-09-09T02:42:08;101481.34;;;16.37;100.00
50242;BME280;36126;43.222;27.874;2022-09-09T02:44:33;101489.81;;;16.59;100.00
50242;BME280;36126;43.222;27.874;2022-09-09T02:47:07;101488.88;;;16.71;100.00
50242;BME280;36126;43.222;27.874;2022-09-09T02:52:15;101488.16;;;16.80;100.00
50242;BME280;36126;43.222;27.874;2022-09-09T02:54:42;101479.09;;;16.73;100.00
50242;BME280;36126;43.222;27.874;2022-09-09T02:59:37;101484.25;;;16.81;100.00
50242;BME280;36126;43.222;27.874;2022-09-09T03:02:02;101486.63;;;16.90;100.00
50242;BME280;36126;43.222;27.874;2022-09-09T03:04:28;101485.53;;;16.91;100.00
50242;BME280;36126;43.222;27.874;2022-09-09T03:06:55;101488.38;;;16.57;100.00
50242;BME280;36126;43.222;27.874;2022-09-09T03:09:20;101488.13;;;16.58;100.00
50242;BME280;36126;43.222;27.874;2022-09-09T03:11:45;101489.38;;;16.67;100.00
50242;BME280;36126;43.222;27.874;2022-09-09T03:14:11;101490.59;;;16.55;100.00
50242;BME280;36126;43.222;27.874;2022-09-09T03:16:36;101495.84;;;16.68;100.00
50242;BME280;36126;43.222;27.874;2022-09-09T03:19:02;101494.75;;;16.69;100.00
50242;BME280;36126;43.222;27.874;2022-09-09T03:21:27;101501.59;;;16.95;100.00
50242;BME280;36126;43.222;27.874;2022-09-09T03:23:52;101493.69;;;17.14;100.00
50242;BME280;36126;43.222;27.874;2022-09-09T03:26:18;101493.25;;;17.00;100.00
50242;BME280;36126;43.222;27.874;2022-09-09T03:28:43;101498.63;;;16.85;100.00
50242;BME280;36126;43.222;27.874;2022-09-09T03:31:10;101503.47;;;16.90;100.00
50242;BME280;36126;43.222;27.874;2022-09-09T03:33:38;101490.72;;;16.99;100.00
50242;BME280;36126;43.222;27.874;2022-09-09T03:36:04;101491.53;;;16.99;100.00
50242;BME280;36126;43.222;27.874;2022-09-09T03:38:30;101491.47;;;16.94;100.00
50242;BME280;36126;43.222;27.874;2022-09-09T03:40:57;101494.09;;;17.01;100.00
50242;BME280;36126;43.222;27.874;2022-09-09T03:43:26;101493.31;;;17.06;100.00
50242;BME280;36126;43.222;27.874;2022-09-09T03:45:51;101498.25;;;16.98;100.00
50242;BME280;36126;43.222;27.874;2022-09-09T03:48:17;101487.09;;;17.04;100.00
50242;BME280;36126;43.222;27.874;2022-09-09T03:50:46;101504.75;;;16.99;100.00
50242;BME280;36126;43.222;27.874;2022-09-09T03:53:12;101497.41;;;16.98;100.00
50242;BME280;36126;43.222;27.874;2022-09-09T03:55:38;101497.16;;;16.99;100.00
50242;BME280;36126;43.222;27.874;2022-09-09T03:58:04;101494.16;;;17.06;100.00
50242;BME280;36126;43.222;27.874;2022-09-09T04:00:29;101493.63;;;17.09;100.00
50242;BME280;36126;43.222;27.874;2022-09-09T04:02:55;101495.00;;;17.07;100.00
50242;BME280;36126;43.222;27.874;2022-09-09T04:05:22;101491.88;;;17.03;100.00
50242;BME280;36126;43.222;27.874;2022-09-09T04:07:48;101490.25;;;17.07;100.00
50242;BME280;36126;43.222;27.874;2022-09-09T04:10:13;101498.78;;;17.17;100.00
50242;BME280;36126;43.222;27.874;2022-09-09T04:12:38;101496.84;;;17.18;100.00
50242;BME280;36126;43.222;27.874;2022-09-09T04:15:04;101497.63;;;17.13;100.00
50242;BME280;36126;43.222;27.874;2022-09-09T04:17:29;101499.25;;;17.31;100.00
50242;BME280;36126;43.222;27.874;2022-09-09T04:19:55;101498.03;;;17.49;100.00
50242;BME280;36126;43.222;27.874;2022-09-09T04:22:22;101500.28;;;18.02;100.00
50242;BME280;36126;43.222;27.874;2022-09-09T04:24:47;101493.28;;;19.33;100.00
50242;BME280;36126;43.222;27.874;2022-09-09T04:27:13;101468.06;;;20.56;100.00
50242;BME280;36126;43.222;27.874;2022-09-09T04:29:38;101468.06;;;21.37;100.00
50242;BME280;36126;43.222;27.874;2022-09-09T04:32:03;101470.34;;;22.20;100.00
50242;BME280;36126;43.222;27.874;2022-09-09T04:34:29;101469.97;;;22.85;100.00
50242;BME280;36126;43.222;27.874;2022-09-09T04:36:56;101470.47;;;23.41;100.00
50242;BME280;36126;43.222;27.874;2022-09-09T04:39:22;101468.94;;;24.06;100.00
50242;BME280;36126;43.222;27.874;2022-09-09T04:41:47;101474.44;;;24.49;100.00
50242;BME280;36126;43.222;27.874;2022-09-09T04:44:13;101469.34;;;25.07;100.00
50242;BME280;36126;43.222;27.874;2022-09-09T04:46:38;101475.25;;;25.75;100.00
50242;BME280;36126;43.222;27.874;2022-09-09T04:49:06;101471.00;;;26.23;100.00
50242;BME280;36126;43.222;27.874;2022-09-09T04:51:31;101460.06;;;26.70;100.00
50242;BME280;36126;43.222;27.874;2022-09-09T04:53:57;101455.53;;;27.18;100.00
50242;BME280;36126;43.222;27.874;2022-09-09T04:56:22;101461.00;;;27.46;100.00
50242;BME280;36126;43.222;27.874;2022-09-09T04:58:47;101465.38;;;27.87;100.00
50242;BME280;36126;43.222;27.874;2022-09-09T05:01:17;101467.06;;;28.23;100.00
50242;BME280;36126;43.222;27.874;2022-09-09T05:03:43;101471.56;;;28.50;100.00
50242;BME280;36126;43.222;27.874;2022-09-09T05:06:14;101471.66;;;28.72;100.00
50242;BME280;36126;43.222;27.874;2022-09-09T05:08:40;101471.16;;;28.61;100.00
50242;BME280;36126;43.222;27.874;2022-09-09T05:11:16;101459.03;;;28.08;100.00
50242;BME280;36126;43.222;27.874;2022-09-09T05:13:42;101466.19;;;27.44;100.00
50242;BME280;36126;43.222;27.874;2022-09-09T05:16:07;101459.91;;;26.75;100.00
50242;BME280;36126;43.222;27.874;2022-09-09T05:18:36;101459.44;;;26.51;100.00
50242;BME280;36126;43.222;27.874;2022-09-09T05:21:02;101463.19;;;27.49;100.00
50242;BME280;36126;43.222;27.874;2022-09-09T05:23:27;101461.69;;;28.13;100.00
50242;BME280;36126;43.222;27.874;2022-09-09T05:25:59;101457.84;;;28.17;100.00
50242;BME280;36126;43.222;27.874;2022-09-09T05:28:25;101462.50;;;28.40;100.00
50242;BME280;36126;43.222;27.874;2022-09-09T05:33:46;101450.75;;;29.18;100.00
50242;BME280;36126;43.222;27.874;2022-09-09T05:36:17;101450.03;;;29.30;100.00
50242;BME280;36126;43.222;27.874;2022-09-09T05:38:43;101454.50;;;28.07;100.00
50242;BME280;36126;43.222;27.874;2022-09-09T05:41:09;101449.41;;;28.86;100.00
50242;BME280;36126;43.222;27.874;2022-09-09T05:43:36;101446.56;;;27.95;100.00
50242;BME280;36126;43.222;27.874;2022-09-09T05:46:03;101444.06;;;26.60;100.00
50242;BME280;36126;43.222;27.874;2022-09-09T05:48:33;101438.25;;;25.52;100.00
50242;BME280;36126;43.222;27.874;2022-09-09T05:50:59;101437.53;;;25.05;100.00
50242;BME280;36126;43.222;27.874;2022-09-09T05:53:28;101435.47;;;24.36;100.00
50242;BME280;36126;43.222;27.874;2022-09-09T05:56:03;101433.97;;;23.91;100.00
50242;BME280;36126;43.222;27.874;2022-09-09T05:58:33;101441.03;;;23.75;100.00
50242;BME280;36126;43.222;27.874;2022-09-09T06:01:09;101434.75;;;23.59;100.00
50242;BME280;36126;43.222;27.874;2022-09-09T06:03:35;101440.50;;;23.73;100.00
50242;BME280;36126;43.222;27.874;2022-09-09T06:06:02;101437.03;;;23.57;100.00
50242;BME280;36126;43.222;27.874;2022-09-09T06:08:30;101441.03;;;23.56;100.00
50242;BME280;36126;43.222;27.874;2022-09-09T06:11:00;101438.75;;;23.58;100.00
50242;BME280;36126;43.222;27.874;2022-09-09T06:13:27;101432.22;;;23.57;100.00
50242;BME280;36126;43.222;27.874;2022-09-09T06:15:54;101431.28;;;23.43;100.00
50242;BME280;36126;43.222;27.874;2022-09-09T06:18:20;101429.97;;;23.54;100.00
50242;BME280;36126;43.222;27.874;2022-09-09T06:20:56;101429.28;;;23.63;100.00
50242;BME280;36126;43.222;27.874;2022-09-09T06:23:21;101436.28;;;23.70;100.00
50242;BME280;36126;43.222;27.874;2022-09-09T06:25:47;101443.47;;;23.63;100.00
50242;BME280;36126;43.222;27.874;2022-09-09T06:28:14;101446.00;;;23.64;100.00
50242;BME280;36126;43.222;27.874;2022-09-09T06:30:40;101449.97;;;23.82;100.00
50242;BME280;36126;43.222;27.874;2022-09-09T06:33:06;101442.66;;;24.00;100.00
50242;BME280;36126;43.222;27.874;2022-09-09T06:35:31;101447.16;;;24.01;100.00
50242;BME280;36126;43.222;27.874;2022-09-09T06:37:57;101449.91;;;23.87;100.00
50242;BME280;36126;43.222;27.874;2022-09-09T06:40:23;101456.97;;;24.09;100.00
50242;BME280;36126;43.222;27.874;2022-09-09T06:42:49;101461.75;;;24.27;100.00
50242;BME280;36126;43.222;27.874;2022-09-09T06:45:14;101460.47;;;24.20;100.00
50242;BME280;36126;43.222;27.874;2022-09-09T06:47:39;101458.91;;;24.27;100.00
50242;BME280;36126;43.222;27.874;2022-09-09T06:50:05;101460.44;;;24.39;100.00
50242;BME280;36126;43.222;27.874;2022-09-09T06:52:32;101468.69;;;24.21;100.00
50242;BME280;36126;43.222;27.874;2022-09-09T06:54:58;101466.00;;;24.11;100.00
50242;BME280;36126;43.222;27.874;2022-09-09T06:57:24;101461.16;;;24.31;100.00
50242;BME280;36126;43.222;27.874;2022-09-09T06:59:49;101458.81;;;24.33;100.00
50242;BME280;36126;43.222;27.874;2022-09-09T07:02:14;101464.28;;;24.43;100.00
50242;BME280;36126;43.222;27.874;2022-09-09T07:04:40;101452.91;;;24.62;100.00
50242;BME280;36126;43.222;27.874;2022-09-09T07:07:05;101454.28;;;24.65;100.00
50242;BME280;36126;43.222;27.874;2022-09-09T07:09:31;101454.91;;;24.61;100.00
50242;BME280;36126;43.222;27.874;2022-09-09T07:11:57;101460.28;;;24.63;100.00
50242;BME280;36126;43.222;27.874;2022-09-09T07:14:24;101459.03;;;24.69;100.00
50242;BME280;36126;43.222;27.874;2022-09-09T07:16:49;101458.81;;;24.93;100.00
50242;BME280;36126;43.222;27.874;2022-09-09T07:19:15;101461.75;;;25.02;100.00
50242;BME280;36126;43.222;27.874;2022-09-09T07:21:41;101456.94;;;24.89;100.00
50242;BME280;36126;43.222;27.874;2022-09-09T07:24:06;101458.31;;;24.91;100.00
50242;BME280;36126;43.222;27.874;2022-09-09T07:26:36;101460.94;;;24.88;100.00
50242;BME280;36126;43.222;27.874;2022-09-09T07:29:01;101456.72;;;24.85;100.00
50242;BME280;36126;43.222;27.874;2022-09-09T07:31:28;101453.03;;;24.99;100.00
50242;BME280;36126;43.222;27.874;2022-09-09T07:33:55;101453.66;;;25.23;100.00
50242;BME280;36126;43.222;27.874;2022-09-09T07:38:51;101457.78;;;24.89;100.00
50242;BME280;36126;43.222;27.874;2022-09-09T07:41:19;101465.25;;;24.99;100.00
50242;BME280;36126;43.222;27.874;2022-09-09T07:43:45;101469.03;;;24.94;100.00
50242;BME280;36126;43.222;27.874;2022-09-09T07:46:11;101472.84;;;25.04;100.00
50242;BME280;36126;43.222;27.874;2022-09-09T07:48:37;101462.31;;;25.04;100.00
50242;BME280;36126;43.222;27.874;2022-09-09T07:51:10;101462.31;;;25.04;100.00
50242;BME280;36126;43.222;27.874;2022-09-09T07:53:37;101457.97;;;25.35;100.00
50242;BME280;36126;43.222;27.874;2022-09-09T07:56:07;101467.84;;;25.51;100.00
50242;BME280;36126;43.222;27.874;2022-09-09T07:58:32;101460.47;;;25.50;100.00
50242;BME280;36126;43.222;27.874;2022-09-09T08:00:58;101466.28;;;25.82;100.00
50242;BME280;36126;43.222;27.874;2022-09-09T08:03:23;101464.09;;;25.78;100.00
50242;BME280;36126;43.222;27.874;2022-09-09T08:05:48;101457.41;;;25.83;100.00
50242;BME280;36126;43.222;27.874;2022-09-09T08:08:14;101453.69;;;25.96;100.00
50242;BME280;36126;43.222;27.874;2022-09-09T08:10:41;101462.78;;;26.21;100.00
50242;BME280;36126;43.222;27.874;2022-09-09T08:13:06;101456.66;;;26.37;100.00
50242;BME280;36126;43.222;27.874;2022-09-09T08:15:33;101452.59;;;26.60;100.00
50242;BME280;36126;43.222;27.874;2022-09-09T08:17:59;101452.97;;;26.68;100.00
50242;BME280;36126;43.222;27.874;2022-09-09T08:20:24;101442.03;;;26.61;100.00
50242;BME280;36126;43.222;27.874;2022-09-09T08:22:50;101431.84;;;26.69;100.00
50242;BME280;36126;43.222;27.874;2022-09-09T08:25:15;101435.53;;;26.69;100.00
50242;BME280;36126;43.222;27.874;2022-09-09T08:27:41;101435.50;;;26.60;100.00
50242;BME280;36126;43.222;27.874;2022-09-09T08:30:06;101430.63;;;26.61;100.00
50242;BME280;36126;43.222;27.874;2022-09-09T08:32:32;101429.81;;;26.60;100.00
50242;BME280;36126;43.222;27.874;2022-09-09T08:34:57;101416.69;;;26.82;100.00
50242;BME280;36126;43.222;27.874;2022-09-09T08:37:22;101418.53;;;26.87;100.00
50242;BME280;36126;43.222;27.874;2022-09-09T08:39:48;101412.38;;;26.62;100.00
50242;BME280;36126;43.222;27.874;2022-09-09T08:42:35;101418.28;;;26.34;100.00
50242;BME280;36126;43.222;27.874;2022-09-09T08:45:12;101416.03;;;26.22;100.00
50242;BME280;36126;43.222;27.874;2022-09-09T08:55:05;101402.09;;;25.75;100.00
50242;BME280;36126;43.222;27.874;2022-09-09T08:57:38;101410.56;;;25.89;100.00
50242;BME280;36126;43.222;27.874;2022-09-09T09:00:04;101407.09;;;25.70;100.00
50242;BME280;36126;43.222;27.874;2022-09-09T09:07:57;101398.94;;;25.77;100.00
50242;BME280;36126;43.222;27.874;2022-09-09T09:12:54;101410.84;;;25.79;100.00
50242;BME280;36126;43.222;27.874;2022-09-09T09:15:23;101408.66;;;25.76;100.00
50242;BME280;36126;43.222;27.874;2022-09-09T09:17:50;101409.16;;;25.78;100.00
50242;BME280;36126;43.222;27.874;2022-09-09T09:20:16;101408.94;;;25.52;100.00
50242;BME280;36126;43.222;27.874;2022-09-09T09:22:46;101413.16;;;25.54;100.00
50242;BME280;36126;43.222;27.874;2022-09-09T09:27:40;101403.09;;;25.71;100.00
50242;BME280;36126;43.222;27.874;2022-09-09T09:30:12;101410.47;;;25.94;100.00
50242;BME280;36126;43.222;27.874;2022-09-09T09:32:39;101417.59;;;26.28;100.00
50242;BME280;36126;43.222;27.874;2022-09-09T09:35:08;101413.50;;;26.52;100.00
50242;BME280;36126;43.222;27.874;2022-09-09T09:37:34;101417.72;;;26.55;100.00
50242;BME280;36126;43.222;27.874;2022-09-09T09:42:35;101428.53;;;26.12;100.00
50242;BME280;36126;43.222;27.874;2022-09-09T09:45:16;101419.91;;;26.26;100.00
50242;BME280;36126;43.222;27.874;2022-09-09T09:47:46;101436.03;;;26.08;100.00
50242;BME280;36126;43.222;27.874;2022-09-09T09:50:18;101425.81;;;26.07;100.00
50242;BME280;36126;43.222;27.874;2022-09-09T09:52:52;101406.78;;;25.94;100.00
50242;BME280;36126;43.222;27.874;2022-09-09T09:55:18;101396.56;;;26.16;100.00
50242;BME280;36126;43.222;27.874;2022-09-09T09:57:43;101402.66;;;26.23;100.00
50242;BME280;36126;43.222;27.874;2022-09-09T10:00:13;101404.88;;;26.35;100.00
50242;BME280;36126;43.222;27.874;2022-09-09T10:02:40;101401.75;;;26.13;100.00
50242;BME280;36126;43.222;27.874;2022-09-09T10:07:39;101413.09;;;26.05;100.00
50242;BME280;36126;43.222;27.874;2022-09-09T10:10:05;101414.88;;;26.01;100.00
50242;BME280;36126;43.222;27.874;2022-09-09T10:23:03;101393.63;;;25.61;100.00
50242;BME280;36126;43.222;27.874;2022-09-09T10:25:34;101399.53;;;25.65;100.00
50242;BME280;36126;43.222;27.874;2022-09-09T10:35:59;101396.09;;;25.77;100.00
50242;BME280;36126;43.222;27.874;2022-09-09T10:48:33;101397.00;;;25.86;100.00
50242;BME280;36126;43.222;27.874;2022-09-09T10:56:12;101395.22;;;26.13;100.00
50242;BME280;36126;43.222;27.874;2022-09-09T11:01:10;101395.06;;;26.18;100.00
50242;BME280;36126;43.222;27.874;2022-09-09T11:03:39;101394.03;;;26.14;100.00
50242;BME280;36126;43.222;27.874;2022-09-09T11:06:06;101395.88;;;26.50;100.00
50242;BME280;36126;43.222;27.874;2022-09-09T11:08:36;101396.69;;;26.42;100.00
50242;BME280;36126;43.222;27.874;2022-09-09T11:11:04;101393.91;;;26.99;100.00
50242;BME280;36126;43.222;27.874;2022-09-09T11:18:49;101391.38;;;26.49;100.00
50242;BME280;36126;43.222;27.874;2022-09-09T11:21:35;101395.16;;;26.36;100.00
50242;BME280;36126;43.222;27.874;2022-09-09T11:24:04;101392.69;;;26.43;100.00
50242;BME280;36126;43.222;27.874;2022-09-09T11:26:42;101387.81;;;26.75;100.00
50242;BME280;36126;43.222;27.874;2022-09-09T11:39:43;101374.25;;;26.80;100.00
50242;BME280;36126;43.222;27.874;2022-09-09T11:44:38;101383.41;;;26.60;100.00
50242;BME280;36126;43.222;27.874;2022-09-09T11:47:14;101377.28;;;26.44;100.00
50242;BME280;36126;43.222;27.874;2022-09-09T11:49:41;101388.69;;;26.44;100.00
50242;BME280;36126;43.222;27.874;2022-09-09T11:52:11;101382.16;;;26.43;100.00
50242;BME280;36126;43.222;27.874;2022-09-09T11:54:44;101376.00;;;26.59;100.00
50242;BME280;36126;43.222;27.874;2022-09-09T11:57:56;101366.28;;;26.60;100.00
50242;BME280;36126;43.222;27.874;2022-09-09T11:59:59;101373.09;;;26.50;100.00
50242;BME280;36126;43.222;27.874;2022-09-09T12:02:26;101373.44;;;26.48;100.00
50242;BME280;36126;43.222;27.874;2022-09-09T12:04:57;101370.91;;;26.47;100.00
50242;BME280;36126;43.222;27.874;2022-09-09T12:07:38;101373.59;;;26.43;100.00
50242;BME280;36126;43.222;27.874;2022-09-09T12:12:50;101358.50;;;26.11;100.00
50242;BME280;36126;43.222;27.874;2022-09-09T12:17:49;101347.34;;;25.92;100.00
50242;BME280;36126;43.222;27.874;2022-09-09T12:20:22;101354.50;;;25.90;100.00
50242;BME280;36126;43.222;27.874;2022-09-09T12:30:28;101339.78;;;26.59;100.00
50242;BME280;36126;43.222;27.874;2022-09-09T12:33:02;101333.56;;;26.48;100.00
50242;BME280;36126;43.222;27.874;2022-09-09T12:35:27;101349.03;;;26.65;100.00
50242;BME280;36126;43.222;27.874;2022-09-09T12:38:01;101338.63;;;26.52;100.00
50242;BME280;36126;43.222;27.874;2022-09-09T12:40:28;101348.00;;;26.52;100.00
50242;BME280;36126;43.222;27.874;2022-09-09T12:42:54;101336.72;;;26.47;100.00
50242;BME280;36126;43.222;27.874;2022-09-09T12:45:26;101330.91;;;26.52;100.00
50242;BME280;36126;43.222;27.874;2022-09-09T12:48:00;101331.09;;;26.64;100.00
50242;BME280;36126;43.222;27.874;2022-09-09T12:50:28;101333.84;;;26.78;100.00
50242;BME280;36126;43.222;27.874;2022-09-09T12:52:55;101324.50;;;26.38;100.00
50242;BME280;36126;43.222;27.874;2022-09-09T12:55:23;101331.34;;;26.05;100.00
50242;BME280;36126;43.222;27.874;2022-09-09T12:57:50;101335.94;;;25.92;100.00
50242;BME280;36126;43.222;27.874;2022-09-09T13:00:17;101320.00;;;26.14;100.00
50242;BME280;36126;43.222;27.874;2022-09-09T13:02:53;101331.22;;;26.10;100.00
50242;BME280;36126;43.222;27.874;2022-09-09T13:05:31;101321.00;;;26.09;100.00
50242;BME280;36126;43.222;27.874;2022-09-09T13:08:02;101325.94;;;26.26;100.00
50242;BME280;36126;43.222;27.874;2022-09-09T13:10:29;101315.19;;;26.23;100.00
50242;BME280;36126;43.222;27.874;2022-09-09T13:12:55;101323.31;;;26.07;100.00
50242;BME280;36126;43.222;27.874;2022-09-09T13:15:23;101313.31;;;25.87;100.00
50242;BME280;36126;43.222;27.874;2022-09-09T13:17:58;101325.19;;;25.58;100.00
50242;BME280;36126;43.222;27.874;2022-09-09T13:20:25;101322.34;;;25.58;100.00
50242;BME280;36126;43.222;27.874;2022-09-09T13:22:51;101313.44;;;26.05;100.00
50242;BME280;36126;43.222;27.874;2022-09-09T13:27:57;101317.22;;;25.69;100.00
50242;BME280;36126;43.222;27.874;2022-09-09T13:35:29;101306.22;;;25.76;100.00
50242;BME280;36126;43.222;27.874;2022-09-09T13:37:55;101299.22;;;25.82;100.00
50242;BME280;36126;43.222;27.874;2022-09-09T13:40:21;101304.97;;;25.91;100.00
50242;BME280;36126;43.222;27.874;2022-09-09T13:42:47;101311.91;;;25.76;100.00
50242;BME280;36126;43.222;27.874;2022-09-09T13:45:17;101298.31;;;25.73;100.00
50242;BME280;36126;43.222;27.874;2022-09-09T13:47:45;101292.44;;;25.46;100.00
50242;BME280;36126;43.222;27.874;2022-09-09T13:50:18;101303.47;;;25.25;100.00
50242;BME280;36126;43.222;27.874;2022-09-09T13:52:44;101294.13;;;25.48;100.00
50242;BME280;36126;43.222;27.874;2022-09-09T13:55:11;101305.72;;;25.51;100.00
50242;BME280;36126;43.222;27.874;2022-09-09T13:57:37;101305.44;;;25.39;100.00
50242;BME280;36126;43.222;27.874;2022-09-09T14:00:02;101298.97;;;25.10;100.00
50242;BME280;36126;43.222;27.874;2022-09-09T14:02:28;101306.41;;;25.20;100.00
50242;BME280;36126;43.222;27.874;2022-09-09T14:04:53;101308.50;;;25.28;100.00
50242;BME280;36126;43.222;27.874;2022-09-09T14:07:20;101304.50;;;25.07;100.00
50242;BME280;36126;43.222;27.874;2022-09-09T14:09:46;101297.84;;;25.11;100.00
50242;BME280;36126;43.222;27.874;2022-09-09T14:12:15;101285.03;;;25.00;100.00
50242;BME280;36126;43.222;27.874;2022-09-09T14:14:40;101283.13;;;25.09;100.00
50242;BME280;36126;43.222;27.874;2022-09-09T14:17:07;101276.56;;;25.09;100.00
50242;BME280;36126;43.222;27.874;2022-09-09T14:19:33;101269.25;;;24.94;100.00
50242;BME280;36126;43.222;27.874;2022-09-09T14:21:59;101271.38;;;24.88;100.00
50242;BME280;36126;43.222;27.874;2022-09-09T14:24:25;101263.78;;;25.20;100.00
50242;BME280;36126;43.222;27.874;2022-09-09T14:26:51;101280.50;;;24.99;100.00
50242;BME280;36126;43.222;27.874;2022-09-09T14:29:16;101275.81;;;24.81;100.00
50242;BME280;36126;43.222;27.874;2022-09-09T14:31:42;101262.97;;;24.83;100.00
50242;BME280;36126;43.222;27.874;2022-09-09T14:34:07;101254.78;;;24.68;100.00
50242;BME280;36126;43.222;27.874;2022-09-09T14:36:36;101268.47;;;24.66;100.00
50242;BME280;36126;43.222;27.874;2022-09-09T14:39:01;101264.50;;;24.67;100.00
50242;BME280;36126;43.222;27.874;2022-09-09T14:41:26;101265.09;;;24.64;100.00
50242;BME280;36126;43.222;27.874;2022-09-09T14:43:54;101267.69;;;24.88;100.00
50242;BME280;36126;43.222;27.874;2022-09-09T14:46:21;101269.88;;;24.91;100.00
50242;BME280;36126;43.222;27.874;2022-09-09T14:48:47;101267.16;;;24.86;100.00
50242;BME280;36126;43.222;27.874;2022-09-09T14:51:16;101279.72;;;24.57;100.00